sensor_id;sensor_type;location;lat;lon;timestamp;temperature;humidity
12053;DHT22;6087;48.982;12.064;2022-09-21T00:01:04;9.00;1.00
12053;DHT22;6087;48.982;12.064;2022-09-21T00:03:31;9.00;1.00
12053;DHT22;6087;48.982;12.064;2022-09-21T00:06:02;9.00;1.00
12053;DHT22;6087;48.982;12.064;2022-09-21T00:08:30;9.00;1.00
12053;DHT22;6087;48.982;12.064;2022-09-21T00:10:56;9.00;1.00
12053;DHT22;6087;48.982;12.064;2022-09-21T00:13:26;9.00;1.00
12053;DHT22;6087;48.982;12.064;2022-09-21T00:15:53;9.00;1.00
12053;DHT22;6087;48.982;12.064;2022-09-21T00:18:20;9.00;1.00
12053;DHT22;6087;48.982;12.064;2022-09-21T00:20:47;8.90;1.00
12053;DHT22;6087;48.982;12.064;2022-09-21T00:23:15;8.80;1.00
12053;DHT22;6087;48.982;12.064;2022-09-21T00:25:42;8.80;1.00
12053;DHT22;6087;48.982;12.064;2022-09-21T00:28:08;8.70;1.00
12053;DHT22;6087;48.982;12.064;2022-09-21T00:30:37;8.70;1.00
12053;DHT22;6087;48.982;12.064;2022-09-21T00:33:04;8.70;1.00
12053;DHT22;6087;48.982;12.064;2022-09-21T00:35:31;8.70;1.00
12053;DHT22;6087;48.982;12.064;2022-09-21T00:38:00;8.50;1.00
12053;DHT22;6087;48.982;12.064;2022-09-21T00:40:27;8.50;1.00
12053;DHT22;6087;48.982;12.064;2022-09-21T00:43:10;8.40;1.00
12053;DHT22;6087;48.982;12.064;2022-09-21T00:45:38;8.40;1.00
12053;DHT22;6087;48.982;12.064;2022-09-21T00:48:06;8.30;1.00
12053;DHT22;6087;48.982;12.064;2022-09-21T00:50:34;8.40;1.00
12053;DHT22;6087;48.982;12.064;2022-09-21T00:53:03;8.40;1.00
12053;DHT22;6087;48.982;12.064;2022-09-21T00:55:32;8.30;1.00
12053;DHT22;6087;48.982;12.064;2022-09-21T00:58:05;8.30;1.00
12053;DHT22;6087;48.982;12.064;2022-09-21T01:00:34;8.30;1.00
12053;DHT22;6087;48.982;12.064;2022-09-21T01:03:03;8.30;1.00
12053;DHT22;6087;48.982;12.064;2022-09-21T01:05:30;8.30;1.00
12053;DHT22;6087;48.982;12.064;2022-09-21T01:08:00;8.20;1.00
12053;DHT22;6087;48.982;12.064;2022-09-21T01:10:31;8.20;1.00
12053;DHT22;6087;48.982;12.064;2022-09-21T01:13:09;8.20;1.00
12053;DHT22;6087;48.982;12.064;2022-09-21T01:15:45;8.10;1.00
12053;DHT22;6087;48.982;12.064;2022-09-21T01:18:20;8.00;1.00
12053;DHT22;6087;48.982;12.064;2022-09-21T01:21:17;8.00;1.00
12053;DHT22;6087;48.982;12.064;2022-09-21T01:29:45;7.90;1.00
12053;DHT22;6087;48.982;12.064;2022-09-21T01:32:17;7.90;1.00
12053;DHT22;6087;48.982;12.064;2022-09-21T01:34:51;7.90;1.00
12053;DHT22;6087;48.982;12.064;2022-09-21T01:37:22;7.90;1.00
12053;DHT22;6087;48.982;12.064;2022-09-21T01:39:54;7.90;1.00
12053;DHT22;6087;48.982;12.064;2022-09-21T01:42:24;7.90;1.00
12053;DHT22;6087;48.982;12.064;2022-09-21T01:44:54;7.80;1.00
12053;DHT22;6087;48.982;12.064;2022-09-21T01:47:24;7.80;1.00
12053;DHT22;6087;48.982;12.064;2022-09-21T01:49:54;7.70;1.00
12053;DHT22;6087;48.982;12.064;2022-09-21T01:52:26;7.60;1.00
12053;DHT22;6087;48.982;12.064;2022-09-21T01:54:59;7.60;1.00
12053;DHT22;6087;48.982;12.064;2022-09-21T01:57:30;7.60;1.00
12053;DHT22;6087;48.982;12.064;2022-09-21T02:00:04;7.50;1.00
12053;DHT22;6087;48.982;12.064;2022-09-21T02:02:35;7.50;1.00
12053;DHT22;6087;48.982;12.064;2022-09-21T02:05:04;7.50;1.00
12053;DHT22;6087;48.982;12.064;2022-09-21T02:07:31;7.50;1.00
12053;DHT22;6087;48.982;12.064;2022-09-21T02:09:59;7.40;1.00
12053;DHT22;6087;48.982;12.064;2022-09-21T02:12:27;7.40;1.00
12053;DHT22;6087;48.982;12.064;2022-09-21T02:14:56;7.30;1.00
12053;DHT22;6087;48.982;12.064;2022-09-21T02:17:35;7.40;1.00
12053;DHT22;6087;48.982;12.064;2022-09-21T02:20:12;7.40;1.00
12053;DHT22;6087;48.982;12.064;2022-09-21T02:22:50;7.50;1.00
12053;DHT22;6087;48.982;12.064;2022-09-21T02:25:27;7.50;1.00
12053;DHT22;6087;48.982;12.064;2022-09-21T02:28:00;7.50;1.00
12053;DHT22;6087;48.982;12.064;2022-09-21T02:30:33;7.60;1.00
12053;DHT22;6087;48.982;12.064;2022-09-21T02:33:09;7.60;1.00
12053;DHT22;6087;48.982;12.064;2022-09-21T02:35:40;7.50;1.00
12053;DHT22;6087;48.982;12.064;2022-09-21T02:38:14;7.50;1.00
12053;DHT22;6087;48.982;12.064;2022-09-21T02:40:48;7.50;1.00
12053;DHT22;6087;48.982;12.064;2022-09-21T02:43:20;7.50;1.00
12053;DHT22;6087;48.982;12.064;2022-09-21T02:45:51;7.30;1.00
12053;DHT22;6087;48.982;12.064;2022-09-21T02:48:25;7.30;1.00
12053;DHT22;6087;48.982;12.064;2022-09-21T02:50:54;7.30;1.00
12053;DHT22;6087;48.982;12.064;2022-09-21T02:53:25;7.30;1.00
12053;DHT22;6087;48.982;12.064;2022-09-21T02:55:54;7.30;1.00
12053;DHT22;6087;48.982;12.064;2022-09-21T02:58:24;7.30;1.00
12053;DHT22;6087;48.982;12.064;2022-09-21T03:00:51;7.30;1.00
12053;DHT22;6087;48.982;12.064;2022-09-21T03:03:23;7.20;1.00
12053;DHT22;6087;48.982;12.064;2022-09-21T03:05:52;7.10;1.00
12053;DHT22;6087;48.982;12.064;2022-09-21T03:08:19;7.10;1.00
12053;DHT22;6087;48.982;12.064;2022-09-21T03:10:46;7.10;1.00
12053;DHT22;6087;48.982;12.064;2022-09-21T03:13:15;7.10;1.00
12053;DHT22;6087;48.982;12.064;2022-09-21T03:15:43;7.20;1.00
12053;DHT22;6087;48.982;12.064;2022-09-21T03:18:11;7.10;1.00
12053;DHT22;6087;48.982;12.064;2022-09-21T03:20:42;7.10;1.00
12053;DHT22;6087;48.982;12.064;2022-09-21T03:23:11;7.10;1.00
12053;DHT22;6087;48.982;12.064;2022-09-21T03:25:38;7.00;1.00
12053;DHT22;6087;48.982;12.064;2022-09-21T03:28:05;6.90;1.00
12053;DHT22;6087;48.982;12.064;2022-09-21T03:30:32;7.00;1.00
12053;DHT22;6087;48.982;12.064;2022-09-21T03:32:59;7.00;1.00
12053;DHT22;6087;48.982;12.064;2022-09-21T03:35:26;7.00;1.00
12053;DHT22;6087;48.982;12.064;2022-09-21T03:37:54;7.10;1.00
12053;DHT22;6087;48.982;12.064;2022-09-21T03:40:22;7.00;1.00
12053;DHT22;6087;48.982;12.064;2022-09-21T03:42:52;6.90;1.00
12053;DHT22;6087;48.982;12.064;2022-09-21T03:45:19;6.90;1.00
12053;DHT22;6087;48.982;12.064;2022-09-21T03:47:47;6.90;1.00
12053;DHT22;6087;48.982;12.064;2022-09-21T03:50:15;6.90;1.00
12053;DHT22;6087;48.982;12.064;2022-09-21T03:52:42;7.00;1.00
12053;DHT22;6087;48.982;12.064;2022-09-21T03:55:11;6.90;1.00
12053;DHT22;6087;48.982;12.064;2022-09-21T03:57:38;6.90;1.00
12053;DHT22;6087;48.982;12.064;2022-09-21T04:00:08;6.90;1.00
12053;DHT22;6087;48.982;12.064;2022-09-21T04:02:36;6.80;1.00
12053;DHT22;6087;48.982;12.064;2022-09-21T04:05:06;6.70;1.00
12053;DHT22;6087;48.982;12.064;2022-09-21T04:07:34;6.70;1.00
12053;DHT22;6087;48.982;12.064;2022-09-21T04:10:01;6.60;1.00
12053;DHT22;6087;48.982;12.064;2022-09-21T04:12:30;6.70;1.00
12053;DHT22;6087;48.982;12.064;2022-09-21T04:14:57;6.80;1.00
12053;DHT22;6087;48.982;12.064;2022-09-21T04:17:24;6.80;1.00
12053;DHT22;6087;48.982;12.064;2022-09-21T04:19:51;6.80;1.00
12053;DHT22;6087;48.982;12.064;2022-09-21T04:22:18;6.90;1.00
12053;DHT22;6087;48.982;12.064;2022-09-21T04:24:45;7.00;1.00
12053;DHT22;6087;48.982;12.064;2022-09-21T04:27:13;7.00;1.00
12053;DHT22;6087;48.982;12.064;2022-09-21T04:29:41;6.90;1.00
12053;DHT22;6087;48.982;12.064;2022-09-21T04:32:09;7.00;1.00
12053;DHT22;6087;48.982;12.064;2022-09-21T04:34:36;6.90;1.00
12053;DHT22;6087;48.982;12.064;2022-09-21T04:37:04;7.00;1.00
12053;DHT22;6087;48.982;12.064;2022-09-21T04:39:32;6.90;1.00
12053;DHT22;6087;48.982;12.064;2022-09-21T04:41:59;7.00;1.00
12053;DHT22;6087;48.982;12.064;2022-09-21T04:44:26;7.00;1.00
12053;DHT22;6087;48.982;12.064;2022-09-21T04:46:55;7.00;1.00
12053;DHT22;6087;48.982;12.064;2022-09-21T04:49:22;7.00;1.00
12053;DHT22;6087;48.982;12.064;2022-09-21T04:51:49;6.90;1.00
12053;DHT22;6087;48.982;12.064;2022-09-21T04:54:16;6.90;1.00
12053;DHT22;6087;48.982;12.064;2022-09-21T04:56:43;6.90;1.00
12053;DHT22;6087;48.982;12.064;2022-09-21T04:59:10;7.00;1.00
12053;DHT22;6087;48.982;12.064;2022-09-21T05:04:25;7.10;1.00
12053;DHT22;6087;48.982;12.064;2022-09-21T05:06:52;7.20;1.00
12053;DHT22;6087;48.982;12.064;2022-09-21T05:09:19;7.20;1.00
12053;DHT22;6087;48.982;12.064;2022-09-21T05:12:03;7.30;1.00
12053;DHT22;6087;48.982;12.064;2022-09-21T05:14:30;7.30;1.00
12053;DHT22;6087;48.982;12.064;2022-09-21T05:16:57;7.30;1.00
12053;DHT22;6087;48.982;12.064;2022-09-21T05:19:25;7.30;1.00
12053;DHT22;6087;48.982;12.064;2022-09-21T05:21:52;7.30;1.00
12053;DHT22;6087;48.982;12.064;2022-09-21T05:24:19;7.30;1.00
12053;DHT22;6087;48.982;12.064;2022-09-21T05:26:46;7.30;1.00
12053;DHT22;6087;48.982;12.064;2022-09-21T05:29:14;7.30;1.00
12053;DHT22;6087;48.982;12.064;2022-09-21T05:31:44;7.30;1.00
12053;DHT22;6087;48.982;12.064;2022-09-21T05:34:23;7.40;1.00
12053;DHT22;6087;48.982;12.064;2022-09-21T05:36:57;7.40;1.00
12053;DHT22;6087;48.982;12.064;2022-09-21T05:39:26;7.40;1.00
12053;DHT22;6087;48.982;12.064;2022-09-21T05:41:54;7.40;1.00
12053;DHT22;6087;48.982;12.064;2022-09-21T05:44:21;7.40;1.00
12053;DHT22;6087;48.982;12.064;2022-09-21T05:46:53;7.50;1.00
12053;DHT22;6087;48.982;12.064;2022-09-21T05:49:33;7.50;1.00
12053;DHT22;6087;48.982;12.064;2022-09-21T05:52:10;7.50;1.00
12053;DHT22;6087;48.982;12.064;2022-09-21T05:54:55;7.50;1.00
12053;DHT22;6087;48.982;12.064;2022-09-21T05:57:30;7.50;1.00
12053;DHT22;6087;48.982;12.064;2022-09-21T06:00:08;7.50;1.00
12053;DHT22;6087;48.982;12.064;2022-09-21T06:02:47;7.50;1.00
12053;DHT22;6087;48.982;12.064;2022-09-21T06:05:16;7.40;1.00
12053;DHT22;6087;48.982;12.064;2022-09-21T06:07:45;7.50;1.00
12053;DHT22;6087;48.982;12.064;2022-09-21T06:10:12;7.40;1.00
12053;DHT22;6087;48.982;12.064;2022-09-21T06:12:40;7.50;1.00
12053;DHT22;6087;48.982;12.064;2022-09-21T06:15:10;7.50;1.00
12053;DHT22;6087;48.982;12.064;2022-09-21T06:17:38;7.60;1.00
12053;DHT22;6087;48.982;12.064;2022-09-21T06:20:06;7.50;1.00
12053;DHT22;6087;48.982;12.064;2022-09-21T06:22:33;7.60;1.00
12053;DHT22;6087;48.982;12.064;2022-09-21T06:25:01;7.60;1.00
12053;DHT22;6087;48.982;12.064;2022-09-21T06:27:28;7.70;1.00
12053;DHT22;6087;48.982;12.064;2022-09-21T06:29:55;7.70;1.00
12053;DHT22;6087;48.982;12.064;2022-09-21T06:32:22;7.70;1.00
12053;DHT22;6087;48.982;12.064;2022-09-21T06:34:49;7.70;1.00
12053;DHT22;6087;48.982;12.064;2022-09-21T06:37:16;7.80;1.00
12053;DHT22;6087;48.982;12.064;2022-09-21T06:39:43;7.80;1.00
12053;DHT22;6087;48.982;12.064;2022-09-21T06:42:11;7.80;1.00
12053;DHT22;6087;48.982;12.064;2022-09-21T06:44:38;7.90;1.00
12053;DHT22;6087;48.982;12.064;2022-09-21T06:47:05;7.90;1.00
12053;DHT22;6087;48.982;12.064;2022-09-21T06:49:32;7.90;1.00
12053;DHT22;6087;48.982;12.064;2022-09-21T06:51:59;7.90;1.00
12053;DHT22;6087;48.982;12.064;2022-09-21T06:54:27;8.00;1.00
12053;DHT22;6087;48.982;12.064;2022-09-21T06:56:53;8.00;1.00
12053;DHT22;6087;48.982;12.064;2022-09-21T06:59:22;8.00;1.00
12053;DHT22;6087;48.982;12.064;2022-09-21T07:01:49;8.00;1.00
12053;DHT22;6087;48.982;12.064;2022-09-21T07:04:16;8.00;1.00
12053;DHT22;6087;48.982;12.064;2022-09-21T07:06:43;8.10;1.00
12053;DHT22;6087;48.982;12.064;2022-09-21T07:09:10;8.10;1.00
12053;DHT22;6087;48.982;12.064;2022-09-21T07:11:37;8.20;1.00
12053;DHT22;6087;48.982;12.064;2022-09-21T07:14:06;8.20;1.00
12053;DHT22;6087;48.982;12.064;2022-09-21T07:16:34;8.30;1.00
12053;DHT22;6087;48.982;12.064;2022-09-21T07:19:02;8.30;1.00
12053;DHT22;6087;48.982;12.064;2022-09-21T07:21:29;8.40;1.00
12053;DHT22;6087;48.982;12.064;2022-09-21T07:23:58;8.40;1.00
12053;DHT22;6087;48.982;12.064;2022-09-21T07:26:24;8.50;1.00
12053;DHT22;6087;48.982;12.064;2022-09-21T07:28:51;8.50;1.00
12053;DHT22;6087;48.982;12.064;2022-09-21T07:31:18;8.60;1.00
12053;DHT22;6087;48.982;12.064;2022-09-21T07:33:46;8.60;1.00
12053;DHT22;6087;48.982;12.064;2022-09-21T07:36:14;8.70;1.00
12053;DHT22;6087;48.982;12.064;2022-09-21T07:38:43;8.70;1.00
12053;DHT22;6087;48.982;12.064;2022-09-21T07:41:13;8.80;1.00
12053;DHT22;6087;48.982;12.064;2022-09-21T07:43:40;8.80;1.00
12053;DHT22;6087;48.982;12.064;2022-09-21T07:46:09;8.90;1.00
12053;DHT22;6087;48.982;12.064;2022-09-21T07:48:36;8.90;1.00
12053;DHT22;6087;48.982;12.064;2022-09-21T07:51:07;8.90;1.00
12053;DHT22;6087;48.982;12.064;2022-09-21T07:53:35;9.00;1.00
12053;DHT22;6087;48.982;12.064;2022-09-21T07:56:03;9.00;1.00
12053;DHT22;6087;48.982;12.064;2022-09-21T07:58:30;9.00;1.00
12053;DHT22;6087;48.982;12.064;2022-09-21T08:01:15;9.00;1.00
12053;DHT22;6087;48.982;12.064;2022-09-21T08:03:42;9.00;1.00
12053;DHT22;6087;48.982;12.064;2022-09-21T08:06:10;9.00;1.00
12053;DHT22;6087;48.982;12.064;2022-09-21T08:08:37;9.00;1.00
12053;DHT22;6087;48.982;12.064;2022-09-21T08:11:06;9.00;1.00
12053;DHT22;6087;48.982;12.064;2022-09-21T08:13:33;9.00;1.00
12053;DHT22;6087;48.982;12.064;2022-09-21T08:16:01;8.90;16.90
12053;DHT22;6087;48.982;12.064;2022-09-21T08:18:29;9.00;1.00
12053;DHT22;6087;48.982;12.064;2022-09-21T08:20:57;9.00;1.00
12053;DHT22;6087;48.982;12.064;2022-09-21T08:23:26;8.90;6.30
12053;DHT22;6087;48.982;12.064;2022-09-21T08:25:57;9.00;1.00
12053;DHT22;6087;48.982;12.064;2022-09-21T08:28:24;9.00;1.00
12053;DHT22;6087;48.982;12.064;2022-09-21T08:30:51;9.10;33.10
12053;DHT22;6087;48.982;12.064;2022-09-21T08:33:18;9.10;25.10
12053;DHT22;6087;48.982;12.064;2022-09-21T08:35:51;9.20;11.90
12053;DHT22;6087;48.982;12.064;2022-09-21T08:38:18;9.20;24.70
12053;DHT22;6087;48.982;12.064;2022-09-21T08:40:46;9.20;32.90
12053;DHT22;6087;48.982;12.064;2022-09-21T08:43:16;9.20;23.90
12053;DHT22;6087;48.982;12.064;2022-09-21T08:45:45;9.30;34.30
12053;DHT22;6087;48.982;12.064;2022-09-21T08:48:17;9.20;22.00
12053;DHT22;6087;48.982;12.064;2022-09-21T08:50:47;9.30;15.20
12053;DHT22;6087;48.982;12.064;2022-09-21T08:53:18;9.30;20.50
12053;DHT22;6087;48.982;12.064;2022-09-21T08:55:47;9.40;69.70
12053;DHT22;6087;48.982;12.064;2022-09-21T08:58:20;9.40;90.30
12053;DHT22;6087;48.982;12.064;2022-09-21T09:00:50;9.40;99.90
12053;DHT22;6087;48.982;12.064;2022-09-21T09:03:29;9.40;99.90
12053;DHT22;6087;48.982;12.064;2022-09-21T09:06:05;9.50;99.90
12053;DHT22;6087;48.982;12.064;2022-09-21T09:08:47;9.60;99.90
12053;DHT22;6087;48.982;12.064;2022-09-21T09:11:30;9.70;99.90
12053;DHT22;6087;48.982;12.064;2022-09-21T09:14:12;9.70;99.90
12053;DHT22;6087;48.982;12.064;2022-09-21T09:16:46;9.80;99.90
12053;DHT22;6087;48.982;12.064;2022-09-21T09:19:21;9.90;99.90
12053;DHT22;6087;48.982;12.064;2022-09-21T09:21:50;9.90;95.10
12053;DHT22;6087;48.982;12.064;2022-09-21T09:24:21;10.00;43.80
12053;DHT22;6087;48.982;12.064;2022-09-21T09:26:54;10.10;12.20
12053;DHT22;6087;48.982;12.064;2022-09-21T09:29:28;10.10;1.00
12053;DHT22;6087;48.982;12.064;2022-09-21T09:31:57;10.20;1.00
12053;DHT22;6087;48.982;12.064;2022-09-21T09:34:29;10.20;1.00
12053;DHT22;6087;48.982;12.064;2022-09-21T09:36:59;10.30;1.00
12053;DHT22;6087;48.982;12.064;2022-09-21T09:39:28;10.30;1.00
12053;DHT22;6087;48.982;12.064;2022-09-21T09:42:10;10.40;1.00
12053;DHT22;6087;48.982;12.064;2022-09-21T09:45:02;10.40;1.00
12053;DHT22;6087;48.982;12.064;2022-09-21T09:47:40;10.40;1.00
12053;DHT22;6087;48.982;12.064;2022-09-21T09:50:10;10.40;1.00
12053;DHT22;6087;48.982;12.064;2022-09-21T09:52:39;10.50;1.00
12053;DHT22;6087;48.982;12.064;2022-09-21T09:55:15;10.60;1.00
12053;DHT22;6087;48.982;12.064;2022-09-21T09:57:47;10.60;1.00
12053;DHT22;6087;48.982;12.064;2022-09-21T10:00:17;10.70;1.00
12053;DHT22;6087;48.982;12.064;2022-09-21T10:02:46;10.80;1.00
12053;DHT22;6087;48.982;12.064;2022-09-21T10:05:20;10.80;1.00
12053;DHT22;6087;48.982;12.064;2022-09-21T10:07:47;10.80;1.00
12053;DHT22;6087;48.982;12.064;2022-09-21T10:10:23;10.90;1.00
12053;DHT22;6087;48.982;12.064;2022-09-21T10:12:55;10.90;1.00
12053;DHT22;6087;48.982;12.064;2022-09-21T10:15:23;11.00;1.00
12053;DHT22;6087;48.982;12.064;2022-09-21T10:17:57;11.00;1.00
12053;DHT22;6087;48.982;12.064;2022-09-21T10:20:27;11.10;1.00
12053;DHT22;6087;48.982;12.064;2022-09-21T10:22:55;11.10;1.00
12053;DHT22;6087;48.982;12.064;2022-09-21T10:25:25;11.20;1.00
12053;DHT22;6087;48.982;12.064;2022-09-21T10:27:54;11.20;99.90
12053;DHT22;6087;48.982;12.064;2022-09-21T10:30:32;11.30;1.00
12053;DHT22;6087;48.982;12.064;2022-09-21T10:33:00;11.30;1.00
12053;DHT22;6087;48.982;12.064;2022-09-21T10:35:27;11.40;1.00
12053;DHT22;6087;48.982;12.064;2022-09-21T10:38:14;11.40;86.60
12053;DHT22;6087;48.982;12.064;2022-09-21T10:40:42;11.60;99.90
12053;DHT22;6087;48.982;12.064;2022-09-21T10:43:23;11.80;99.90
12053;DHT22;6087;48.982;12.064;2022-09-21T10:45:55;12.00;99.90
12053;DHT22;6087;48.982;12.064;2022-09-21T10:48:23;12.10;99.90
12053;DHT22;6087;48.982;12.064;2022-09-21T10:50:52;12.20;88.70
12053;DHT22;6087;48.982;12.064;2022-09-21T10:53:23;12.30;1.00
12053;DHT22;6087;48.982;12.064;2022-09-21T10:55:57;12.30;99.90
12053;DHT22;6087;48.982;12.064;2022-09-21T10:58:27;12.40;1.00
12053;DHT22;6087;48.982;12.064;2022-09-21T11:00:55;12.50;99.90
12053;DHT22;6087;48.982;12.064;2022-09-21T11:03:43;12.60;1.00
12053;DHT22;6087;48.982;12.064;2022-09-21T11:06:16;12.60;1.00
12053;DHT22;6087;48.982;12.064;2022-09-21T11:08:47;12.70;1.00
12053;DHT22;6087;48.982;12.064;2022-09-21T11:11:33;12.80;99.90
12053;DHT22;6087;48.982;12.064;2022-09-21T11:14:13;13.00;99.90
12053;DHT22;6087;48.982;12.064;2022-09-21T11:16:47;13.00;99.90
12053;DHT22;6087;48.982;12.064;2022-09-21T11:19:21;13.00;99.90
12053;DHT22;6087;48.982;12.064;2022-09-21T11:21:56;12.90;1.00
12053;DHT22;6087;48.982;12.064;2022-09-21T11:24:32;12.90;1.00
12053;DHT22;6087;48.982;12.064;2022-09-21T11:27:05;12.90;1.00
12053;DHT22;6087;48.982;12.064;2022-09-21T11:29:39;12.90;99.90
12053;DHT22;6087;48.982;12.064;2022-09-21T11:32:32;13.00;99.90
12053;DHT22;6087;48.982;12.064;2022-09-21T11:35:21;13.00;99.20
12053;DHT22;6087;48.982;12.064;2022-09-21T11:38:03;13.00;99.90
12053;DHT22;6087;48.982;12.064;2022-09-21T11:40:38;13.00;1.00
12053;DHT22;6087;48.982;12.064;2022-09-21T11:43:29;13.00;99.90
12053;DHT22;6087;48.982;12.064;2022-09-21T11:46:07;13.00;99.90
12053;DHT22;6087;48.982;12.064;2022-09-21T11:48:47;13.00;99.90
12053;DHT22;6087;48.982;12.064;2022-09-21T11:51:28;13.00;99.90
12053;DHT22;6087;48.982;12.064;2022-09-21T11:54:29;13.10;1.00
12053;DHT22;6087;48.982;12.064;2022-09-21T11:57:06;13.30;99.90
12053;DHT22;6087;48.982;12.064;2022-09-21T11:59:51;13.40;99.90
12053;DHT22;6087;48.982;12.064;2022-09-21T12:02:32;13.40;99.90
12053;DHT22;6087;48.982;12.064;2022-09-21T12:05:05;13.40;99.90
12053;DHT22;6087;48.982;12.064;2022-09-21T12:07:49;13.40;1.00
12053;DHT22;6087;48.982;12.064;2022-09-21T12:10:38;13.40;99.90
12053;DHT22;6087;48.982;12.064;2022-09-21T12:13:17;13.30;99.90
12053;DHT22;6087;48.982;12.064;2022-09-21T12:15:50;13.30;74.70
12053;DHT22;6087;48.982;12.064;2022-09-21T12:18:28;13.20;1.00
12053;DHT22;6087;48.982;12.064;2022-09-21T12:21:00;13.20;25.60
12053;DHT22;6087;48.982;12.064;2022-09-21T12:23:37;13.40;1.00
12053;DHT22;6087;48.982;12.064;2022-09-21T12:26:05;14.00;1.00
12053;DHT22;6087;48.982;12.064;2022-09-21T12:28:37;15.50;1.00
12053;DHT22;6087;48.982;12.064;2022-09-21T12:31:08;17.50;99.90
12053;DHT22;6087;48.982;12.064;2022-09-21T12:33:44;19.60;1.00
12053;DHT22;6087;48.982;12.064;2022-09-21T12:36:16;21.70;37.20
12053;DHT22;6087;48.982;12.064;2022-09-21T12:38:49;23.50;74.90
12053;DHT22;6087;48.982;12.064;2022-09-21T12:41:21;25.10;63.10
12053;DHT22;6087;48.982;12.064;2022-09-21T12:43:52;26.60;54.10
12053;DHT22;6087;48.982;12.064;2022-09-21T12:46:24;27.80;42.70
12053;DHT22;6087;48.982;12.064;2022-09-21T12:48:58;28.80;34.00
12053;DHT22;6087;48.982;12.064;2022-09-21T12:51:29;29.80;29.00
12053;DHT22;6087;48.982;12.064;2022-09-21T12:53:59;30.60;23.30
12053;DHT22;6087;48.982;12.064;2022-09-21T12:56:35;31.20;20.20
12053;DHT22;6087;48.982;12.064;2022-09-21T12:59:16;31.90;13.60
12053;DHT22;6087;48.982;12.064;2022-09-21T13:01:47;32.20;10.90
12053;DHT22;6087;48.982;12.064;2022-09-21T13:04:34;32.70;8.30
12053;DHT22;6087;48.982;12.064;2022-09-21T13:07:29;32.90;6.10
12053;DHT22;6087;48.982;12.064;2022-09-21T13:10:10;33.00;3.70
12053;DHT22;6087;48.982;12.064;2022-09-21T13:12:41;32.20;4.20
12053;DHT22;6087;48.982;12.064;2022-09-21T13:15:14;31.00;4.00
12053;DHT22;6087;48.982;12.064;2022-09-21T13:17:43;29.80;4.90
12053;DHT22;6087;48.982;12.064;2022-09-21T13:20:17;29.00;5.90
12053;DHT22;6087;48.982;12.064;2022-09-21T13:22:45;28.10;5.50
12053;DHT22;6087;48.982;12.064;2022-09-21T13:25:21;27.00;5.80
12053;DHT22;6087;48.982;12.064;2022-09-21T13:28:00;26.10;5.90
12053;DHT22;6087;48.982;12.064;2022-09-21T13:30:39;25.20;5.90
12053;DHT22;6087;48.982;12.064;2022-09-21T13:33:30;24.30;7.30
12053;DHT22;6087;48.982;12.064;2022-09-21T13:36:06;23.50;8.00
12053;DHT22;6087;48.982;12.064;2022-09-21T13:38:55;22.80;9.30
12053;DHT22;6087;48.982;12.064;2022-09-21T13:41:25;22.00;10.20
12053;DHT22;6087;48.982;12.064;2022-09-21T13:44:02;21.50;10.70
12053;DHT22;6087;48.982;12.064;2022-09-21T13:46:48;21.20;12.20
12053;DHT22;6087;48.982;12.064;2022-09-21T13:49:23;21.20;12.90
12053;DHT22;6087;48.982;12.064;2022-09-21T13:51:55;21.20;13.10
12053;DHT22;6087;48.982;12.064;2022-09-21T13:54:26;21.20;13.60
12053;DHT22;6087;48.982;12.064;2022-09-21T13:57:15;21.30;14.30
12053;DHT22;6087;48.982;12.064;2022-09-21T13:59:45;21.30;14.00
12053;DHT22;6087;48.982;12.064;2022-09-21T14:02:26;21.10;14.10
12053;DHT22;6087;48.982;12.064;2022-09-21T14:05:00;21.10;15.20
12053;DHT22;6087;48.982;12.064;2022-09-21T14:07:31;21.00;15.10
12053;DHT22;6087;48.982;12.064;2022-09-21T14:10:02;20.90;15.30
12053;DHT22;6087;48.982;12.064;2022-09-21T14:12:33;21.00;14.30
12053;DHT22;6087;48.982;12.064;2022-09-21T14:15:29;21.00;14.80
12053;DHT22;6087;48.982;12.064;2022-09-21T14:18:19;21.00;15.10
12053;DHT22;6087;48.982;12.064;2022-09-21T14:21:10;21.00;15.80
12053;DHT22;6087;48.982;12.064;2022-09-21T14:24:18;20.90;15.50
12053;DHT22;6087;48.982;12.064;2022-09-21T14:26:51;20.80;15.40
12053;DHT22;6087;48.982;12.064;2022-09-21T14:29:21;20.80;15.80
12053;DHT22;6087;48.982;12.064;2022-09-21T14:31:53;20.70;15.50
12053;DHT22;6087;48.982;12.064;2022-09-21T14:34:23;20.50;15.20
12053;DHT22;6087;48.982;12.064;2022-09-21T14:36:54;20.30;14.60
12053;DHT22;6087;48.982;12.064;2022-09-21T14:39:27;20.30;15.30
12053;DHT22;6087;48.982;12.064;2022-09-21T14:42:00;20.00;16.00
12053;DHT22;6087;48.982;12.064;2022-09-21T14:44:30;20.10;16.80
12053;DHT22;6087;48.982;12.064;2022-09-21T14:47:15;20.10;17.20
12053;DHT22;6087;48.982;12.064;2022-09-21T14:50:01;20.10;16.90
12053;DHT22;6087;48.982;12.064;2022-09-21T14:52:39;20.10;17.20
12053;DHT22;6087;48.982;12.064;2022-09-21T14:55:16;20.00;18.30
12053;DHT22;6087;48.982;12.064;2022-09-21T14:58:04;19.90;17.60
12053;DHT22;6087;48.982;12.064;2022-09-21T15:00:38;19.80;18.10
12053;DHT22;6087;48.982;12.064;2022-09-21T15:03:29;19.60;18.40
12053;DHT22;6087;48.982;12.064;2022-09-21T15:06:09;19.30;20.10
12053;DHT22;6087;48.982;12.064;2022-09-21T15:08:59;19.00;21.30
12053;DHT22;6087;48.982;12.064;2022-09-21T15:11:58;18.70;22.40
12053;DHT22;6087;48.982;12.064;2022-09-21T15:14:32;18.40;23.40
12053;DHT22;6087;48.982;12.064;2022-09-21T15:16:59;18.20;23.50
12053;DHT22;6087;48.982;12.064;2022-09-21T15:19:27;18.00;23.90
12053;DHT22;6087;48.982;12.064;2022-09-21T15:21:56;17.80;25.00
12053;DHT22;6087;48.982;12.064;2022-09-21T15:24:35;17.60;26.00
12053;DHT22;6087;48.982;12.064;2022-09-21T15:27:06;17.40;27.00
12053;DHT22;6087;48.982;12.064;2022-09-21T15:29:36;17.30;28.40
12053;DHT22;6087;48.982;12.064;2022-09-21T15:32:04;17.20;30.10
12053;DHT22;6087;48.982;12.064;2022-09-21T15:34:31;17.20;32.60
12053;DHT22;6087;48.982;12.064;2022-09-21T15:37:06;17.10;33.80
12053;DHT22;6087;48.982;12.064;2022-09-21T15:39:33;17.00;33.80
12053;DHT22;6087;48.982;12.064;2022-09-21T15:42:15;16.90;34.30
12053;DHT22;6087;48.982;12.064;2022-09-21T15:44:48;16.90;34.30
12053;DHT22;6087;48.982;12.064;2022-09-21T15:47:18;16.80;33.60
12053;DHT22;6087;48.982;12.064;2022-09-21T15:49:46;16.70;34.90
12053;DHT22;6087;48.982;12.064;2022-09-21T15:52:19;16.60;36.20
12053;DHT22;6087;48.982;12.064;2022-09-21T15:54:52;16.50;36.80
12053;DHT22;6087;48.982;12.064;2022-09-21T15:57:30;16.40;36.40
12053;DHT22;6087;48.982;12.064;2022-09-21T16:00:01;16.30;37.10
12053;DHT22;6087;48.982;12.064;2022-09-21T16:02:34;16.20;38.40
12053;DHT22;6087;48.982;12.064;2022-09-21T16:05:02;16.10;39.70
12053;DHT22;6087;48.982;12.064;2022-09-21T16:07:32;16.00;41.10
12053;DHT22;6087;48.982;12.064;2022-09-21T16:09:59;15.90;43.20
12053;DHT22;6087;48.982;12.064;2022-09-21T16:12:41;15.90;44.00
12053;DHT22;6087;48.982;12.064;2022-09-21T16:15:23;15.80;45.10
12053;DHT22;6087;48.982;12.064;2022-09-21T16:17:58;15.70;45.80
12053;DHT22;6087;48.982;12.064;2022-09-21T16:20:42;15.60;48.20
12053;DHT22;6087;48.982;12.064;2022-09-21T16:23:13;15.50;49.40
12053;DHT22;6087;48.982;12.064;2022-09-21T16:25:41;15.40;50.50
12053;DHT22;6087;48.982;12.064;2022-09-21T16:28:43;15.30;51.90
12053;DHT22;6087;48.982;12.064;2022-09-21T16:31:29;15.20;53.70